Time;durP1;ratioP1;P1;durP2;ratioP2;P2;SDS_P1;SDS_P2;PMS_P1;PMS_P2;Temp;Humidity;BMP_temperature;BMP_pressure;BME280_temperature;BME280_humidity;BME280_pressure;Samples;Min_cycle;Max_cycle;Signal;HPM_P1;HPM_P2
2024/01/23 00:15:45;;;;;;;20.55;13.77;;;;;;;20.09;45.41;101060.16;41328506;28;20085;-77
2024/01/23 00:35:47;;;;;;;18.67;12.75;;;;;;;20.05;45.56;101056.00;41370988;28;20049;-77
2024/01/23 00:55:47;;;;;;;17.50;12.80;;;;;;;20.03;46.30;101028.97;41369683;28;20077;-76
2024/01/23 01:15:48;;;;;;;17.67;12.48;;;;;;;20.06;46.45;101051.59;41346590;28;20409;-75
2024/01/23 01:35:51;;;;;;;18.67;12.35;;;;;;;20.01;46.37;101028.22;41372686;28;20034;-75
2024/01/23 01:55:51;;;;;;;18.88;12.32;;;;;;;19.95;46.70;101016.28;41385911;28;20038;-76
2024/01/23 02:15:53;;;;;;;16.83;11.82;;;;;;;20.00;47.00;101006.31;41352663;28;20043;-76
2024/01/23 02:35:53;;;;;;;17.75;12.70;;;;;;;20.08;46.80;100997.97;41367028;28;20594;-76
2024/01/23 02:55:53;;;;;;;17.65;12.27;;;;;;;20.06;46.76;101009.53;41411867;28;20042;-76
2024/01/23 03:15:57;;;;;;;17.20;12.07;;;;;;;20.05;46.57;101024.44;41379526;28;20042;-76
2024/01/23 03:35:57;;;;;;;17.23;12.25;;;;;;;20.03;46.38;101021.09;41296558;28;20050;-75
2024/01/23 03:55:58;;;;;;;16.92;12.00;;;;;;;20.13;45.91;100995.06;41371131;28;20054;-68
2024/01/23 04:15:59;;;;;;;18.52;11.88;;;;;;;20.13;47.06;101021.34;41346494;28;20157;-68
2024/01/23 04:36:00;;;;;;;19.73;13.02;;;;;;;20.06;47.08;101035.81;41341394;28;20487;-69
2024/01/23 04:56:00;;;;;;;17.10;12.23;;;;;;;20.00;47.00;101034.41;41331412;28;20056;-69
2024/01/23 05:16:01;;;;;;;17.05;11.68;;;;;;;20.24;46.27;101065.41;41357216;28;20045;-68
2024/01/23 05:36:01;;;;;;;24.65;11.98;;;;;;;20.92;44.97;101056.66;41212561;28;20065;-70
2024/01/23 05:56:02;;;;;;;29.90;16.75;;;;;;;20.08;43.00;101086.50;41356724;28;20132;-71
2024/01/23 06:16:03;;;;;;;25.55;15.90;;;;;;;20.62;43.59;101115.56;41393139;28;20153;-75
2024/01/23 06:36:04;;;;;;;25.63;15.30;;;;;;;21.04;41.71;101144.50;41425554;28;20054;-69
2024/01/23 06:56:05;;;;;;;24.35;13.15;;;;;;;21.30;42.05;101162.22;41413894;28;20117;-75
2024/01/23 07:16:06;;;;;;;21.60;13.27;;;;;;;21.31;41.47;101211.31;41419151;28;20386;-76
2024/01/23 07:36:06;;;;;;;18.75;12.63;;;;;;;21.37;42.06;101211.78;41400853;28;20052;-74
2024/01/23 07:56:07;;;;;;;18.90;12.05;;;;;;;21.25;41.95;101217.81;41399596;28;20066;-78
2024/01/23 08:16:08;;;;;;;17.63;11.55;;;;;;;21.32;42.29;101221.75;41402092;28;20050;-78
2024/01/23 08:36:09;;;;;;;16.52;11.63;;;;;;;21.21;42.19;101254.03;41249506;28;20049;-78
2024/01/23 08:56:10;;;;;;;17.92;11.73;;;;;;;21.22;43.03;101262.81;41316173;28;20076;-77
2024/01/23 09:16:10;;;;;;;19.35;12.20;;;;;;;21.24;42.63;101261.75;41475318;28;20486;-80
2024/01/23 09:36:10;;;;;;;17.38;10.95;;;;;;;21.32;42.27;101268.34;41319690;28;20418;-80
2024/01/23 09:56:11;;;;;;;16.13;11.15;;;;;;;21.35;41.42;101258.44;41414208;28;20050;-80
2024/01/23 10:16:14;;;;;;;16.27;10.90;;;;;;;21.49;41.01;101268.06;41446094;28;20045;-78
2024/01/23 10:36:15;;;;;;;18.80;12.27;;;;;;;21.63;41.10;101258.47;41424230;28;20045;-78
2024/01/23 10:56:18;;;;;;;16.63;12.07;;;;;;;21.77;40.46;101244.38;41419395;28;20056;-80
2024/01/23 11:16:19;;;;;;;15.23;11.23;;;;;;;22.04;40.51;101231.13;41406256;28;20033;-79
2024/01/23 11:36:27;;;;;;;18.25;12.30;;;;;;;22.15;40.50;101202.22;41256332;28;20489;-79
2024/01/23 11:56:28;;;;;;;16.98;11.27;;;;;;;22.24;40.33;101200.78;41267696;28;20044;-78
2024/01/23 12:16:28;;;;;;;16.33;11.63;;;;;;;22.16;40.22;101203.09;41246875;28;20061;-75
2024/01/23 12:36:28;;;;;;;15.55;10.43;;;;;;;21.99;41.29;101243.78;41317662;28;20065;-69
2024/01/23 12:56:29;;;;;;;14.02;10.35;;;;;;;21.84;41.72;101229.84;41407822;28;20094;-74
2024/01/23 13:16:29;;;;;;;14.30;9.90;;;;;;;21.79;41.98;101256.53;41408143;28;20548;-76
2024/01/23 13:36:30;;;;;;;16.85;10.27;;;;;;;20.65;34.71;101259.25;41400181;28;20065;-73
2024/01/23 13:56:30;;;;;;;12.27;8.25;;;;;;;21.66;37.93;101284.63;41414975;28;20520;-77
2024/01/23 14:16:31;;;;;;;16.00;7.47;;;;;;;21.78;39.63;101304.06;41448058;28;20057;-78
2024/01/23 14:36:31;;;;;;;10.32;7.10;;;;;;;21.76;40.83;101333.16;41461534;28;20138;-78
2024/01/23 14:56:32;;;;;;;11.18;7.85;;;;;;;21.52;38.12;101370.66;41371743;28;20548;-79
2024/01/23 15:16:32;;;;;;;10.25;7.43;;;;;;;21.42;40.07;101409.94;41444107;28;20101;-74
2024/01/23 15:36:34;;;;;;;10.15;7.18;;;;;;;21.22;40.54;101391.88;41397385;28;20045;-75
2024/01/23 15:56:35;;;;;;;13.38;8.75;;;;;;;20.85;37.36;101437.06;41409395;28;20113;-78
2024/01/23 16:16:35;;;;;;;13.05;8.68;;;;;;;21.11;40.83;101503.97;41379851;28;20100;-79
2024/01/23 16:36:36;;;;;;;12.05;8.63;;;;;;;21.13;41.33;101538.16;41406826;28;20692;-75
2024/01/23 16:56:37;;;;;;;12.68;8.82;;;;;;;21.05;41.82;101540.38;41306252;28;20054;-75
2024/01/23 17:16:38;;;;;;;10.07;7.97;;;;;;;21.13;42.64;101568.88;41335033;28;20100;-77
2024/01/23 17:36:38;;;;;;;11.02;8.63;;;;;;;21.03;42.34;101585.25;41438944;28;20406;-75
2024/01/23 17:56:46;;;;;;;12.52;9.13;;;;;;;21.01;43.23;101594.16;41380685;28;20041;-74
2024/01/23 18:16:46;;;;;;;13.50;9.82;;;;;;;20.81;43.69;101592.66;41404144;28;20046;-75
2024/01/23 18:36:47;;;;;;;63.42;24.10;;;;;;;21.03;45.96;101595.78;41392247;28;20045;-73
2024/01/23 18:56:50;;;;;;;50.30;20.30;;;;;;;21.14;46.17;101589.03;41416696;28;20044;-76
2024/01/23 19:16:51;;;;;;;43.13;17.40;;;;;;;21.08;46.46;101603.38;41401870;28;20118;-76
2024/01/23 19:36:52;;;;;;;35.20;16.17;;;;;;;21.08;46.34;101614.78;41425429;28;20494;-77
2024/01/23 19:56:53;;;;;;;31.60;14.57;;;;;;;20.94;46.46;101655.03;41399952;28;20048;-78
2024/01/23 20:16:53;;;;;;;28.95;13.45;;;;;;;20.86;46.38;101667.81;41421864;28;20061;-75
2024/01/23 20:36:54;;;;;;;25.48;13.18;;;;;;;20.83;46.60;101694.31;41411887;28;20049;-74
2024/01/23 20:57:02;;;;;;;29.67;13.57;;;;;;;20.46;45.73;101702.38;41379722;28;20043;-73
2024/01/23 21:17:03;;;;;;;24.27;12.10;;;;;;;20.68;45.41;101714.38;41399067;28;20082;-74
2024/01/23 21:37:04;;;;;;;18.73;11.15;;;;;;;20.74;45.74;101715.88;41327215;28;20078;-72
2024/01/23 21:57:10;;;;;;;18.08;10.80;;;;;;;20.71;45.68;101726.53;41309723;28;20042;-73
2024/01/23 22:17:10;;;;;;;16.20;9.90;;;;;;;20.68;45.16;101730.19;41402158;28;20053;-74
2024/01/23 22:37:10;;;;;;;12.73;8.38;;;;;;;20.56;45.91;101729.06;41408703;28;20528;-73
2024/01/23 22:57:11;;;;;;;12.77;8.45;;;;;;;20.47;46.32;101722.50;41396427;28;20038;-76
2024/01/23 23:17:11;;;;;;;13.57;8.35;;;;;;;20.45;46.49;101710.38;41398841;28;20609;-75
2024/01/23 23:37:12;;;;;;;12.70;8.30;;;;;;;20.37;47.25;101709.91;41388614;28;20044;-75
2024/01/23 23:57:12;;;;;;;12.18;8.07;;;;;;;20.37;47.41;101689.69;41390795;28;22620;-74
